sensor_id;sensor_type;location;lat;lon;timestamp;P1;durP1;ratioP1;P2;durP2;ratioP2
54983;SDS011;40884;53.562;9.940;2024-01-30T00:00:26;9.00;;;8.00;;
54983;SDS011;40884;53.562;9.940;2024-01-30T00:01:26;9.90;;;7.50;;
54983;SDS011;40884;53.562;9.940;2024-01-30T00:02:27;9.90;;;7.67;;
54983;SDS011;40884;53.562;9.940;2024-01-30T00:03:27;8.23;;;7.37;;
54983;SDS011;40884;53.562;9.940;2024-01-30T00:04:27;8.93;;;7.40;;
54983;SDS011;40884;53.562;9.940;2024-01-30T00:05:27;10.73;;;7.87;;
54983;SDS011;40884;53.562;9.940;2024-01-30T00:06:27;10.00;;;7.43;;
54983;SDS011;40884;53.562;9.940;2024-01-30T00:07:27;9.63;;;7.67;;
54983;SDS011;40884;53.562;9.940;2024-01-30T00:08:27;9.60;;;7.97;;
54983;SDS011;40884;53.562;9.940;2024-01-30T00:09:27;11.83;;;8.27;;
54983;SDS011;40884;53.562;9.940;2024-01-30T00:10:27;9.87;;;7.93;;
54983;SDS011;40884;53.562;9.940;2024-01-30T00:11:28;8.87;;;7.63;;
54983;SDS011;40884;53.562;9.940;2024-01-30T00:12:28;11.33;;;7.87;;
54983;SDS011;40884;53.562;9.940;2024-01-30T00:13:28;10.20;;;7.17;;
54983;SDS011;40884;53.562;9.940;2024-01-30T00:14:28;10.00;;;8.03;;
54983;SDS011;40884;53.562;9.940;2024-01-30T00:15:28;12.07;;;8.03;;
54983;SDS011;40884;53.562;9.940;2024-01-30T00:16:28;9.67;;;7.60;;
54983;SDS011;40884;53.562;9.940;2024-01-30T00:17:28;8.73;;;7.73;;
54983;SDS011;40884;53.562;9.940;2024-01-30T00:18:28;10.73;;;7.70;;
54983;SDS011;40884;53.562;9.940;2024-01-30T00:19:28;9.77;;;7.50;;
54983;SDS011;40884;53.562;9.940;2024-01-30T00:20:29;10.60;;;7.40;;
54983;SDS011;40884;53.562;9.940;2024-01-30T00:21:29;10.40;;;7.43;;
54983;SDS011;40884;53.562;9.940;2024-01-30T00:22:29;9.80;;;8.37;;
54983;SDS011;40884;53.562;9.940;2024-01-30T00:23:29;8.97;;;7.33;;
54983;SDS011;40884;53.562;9.940;2024-01-30T00:24:29;11.73;;;7.67;;
54983;SDS011;40884;53.562;9.940;2024-01-30T00:25:29;9.40;;;7.87;;
54983;SDS011;40884;53.562;9.940;2024-01-30T00:26:29;10.83;;;7.57;;
54983;SDS011;40884;53.562;9.940;2024-01-30T00:27:29;10.50;;;8.00;;
54983;SDS011;40884;53.562;9.940;2024-01-30T00:28:29;8.50;;;7.23;;
54983;SDS011;40884;53.562;9.940;2024-01-30T00:29:30;9.27;;;7.07;;
54983;SDS011;40884;53.562;9.940;2024-01-30T00:30:30;9.80;;;7.90;;
54983;SDS011;40884;53.562;9.940;2024-01-30T00:31:30;9.80;;;7.60;;
54983;SDS011;40884;53.562;9.940;2024-01-30T00:32:30;10.03;;;7.90;;
54983;SDS011;40884;53.562;9.940;2024-01-30T00:33:30;12.70;;;7.90;;
54983;SDS011;40884;53.562;9.940;2024-01-30T00:34:30;12.03;;;7.67;;
54983;SDS011;40884;53.562;9.940;2024-01-30T00:35:30;9.43;;;7.90;;
54983;SDS011;40884;53.562;9.940;2024-01-30T00:36:30;8.63;;;7.47;;
54983;SDS011;40884;53.562;9.940;2024-01-30T00:37:30;8.67;;;6.87;;
54983;SDS011;40884;53.562;9.940;2024-01-30T00:38:31;9.20;;;7.47;;
54983;SDS011;40884;53.562;9.940;2024-01-30T00:39:31;9.27;;;7.87;;
54983;SDS011;40884;53.562;9.940;2024-01-30T00:40:31;8.63;;;7.20;;
54983;SDS011;40884;53.562;9.940;2024-01-30T00:41:31;8.33;;;6.80;;
54983;SDS011;40884;53.562;9.940;2024-01-30T00:42:32;8.40;;;6.97;;
54983;SDS011;40884;53.562;9.940;2024-01-30T00:43:32;9.23;;;7.57;;
54983;SDS011;40884;53.562;9.940;2024-01-30T00:44:34;8.97;;;7.40;;
54983;SDS011;40884;53.562;9.940;2024-01-30T00:45:34;10.05;;;7.78;;
54983;SDS011;40884;53.562;9.940;2024-01-30T00:46:35;8.10;;;7.30;;
54983;SDS011;40884;53.562;9.940;2024-01-30T00:47:35;10.80;;;6.97;;
54983;SDS011;40884;53.562;9.940;2024-01-30T00:48:35;10.17;;;7.63;;
54983;SDS011;40884;53.562;9.940;2024-01-30T00:49:35;9.17;;;7.20;;
54983;SDS011;40884;53.562;9.940;2024-01-30T00:50:36;11.47;;;7.93;;
54983;SDS011;40884;53.562;9.940;2024-01-30T00:51:36;8.80;;;7.23;;
54983;SDS011;40884;53.562;9.940;2024-01-30T00:52:36;11.97;;;6.83;;
54983;SDS011;40884;53.562;9.940;2024-01-30T00:53:36;8.90;;;7.07;;
54983;SDS011;40884;53.562;9.940;2024-01-30T00:54:36;9.23;;;7.07;;
54983;SDS011;40884;53.562;9.940;2024-01-30T00:55:36;9.37;;;7.10;;
54983;SDS011;40884;53.562;9.940;2024-01-30T00:56:36;8.13;;;6.87;;
54983;SDS011;40884;53.562;9.940;2024-01-30T00:57:37;8.17;;;7.27;;
54983;SDS011;40884;53.562;9.940;2024-01-30T00:58:37;9.63;;;6.90;;
54983;SDS011;40884;53.562;9.940;2024-01-30T00:59:37;9.63;;;7.00;;
54983;SDS011;40884;53.562;9.940;2024-01-30T01:00:38;8.10;;;6.93;;
54983;SDS011;40884;53.562;9.940;2024-01-30T01:01:38;8.55;;;7.32;;
54983;SDS011;40884;53.562;9.940;2024-01-30T01:02:39;8.33;;;6.70;;
54983;SDS011;40884;53.562;9.940;2024-01-30T01:03:39;9.80;;;7.20;;
54983;SDS011;40884;53.562;9.940;2024-01-30T01:04:39;7.93;;;7.10;;
54983;SDS011;40884;53.562;9.940;2024-01-30T01:05:39;9.43;;;7.50;;
54983;SDS011;40884;53.562;9.940;2024-01-30T01:06:39;9.80;;;6.73;;
54983;SDS011;40884;53.562;9.940;2024-01-30T01:07:39;8.07;;;7.20;;
54983;SDS011;40884;53.562;9.940;2024-01-30T01:08:39;8.77;;;6.87;;
54983;SDS011;40884;53.562;9.940;2024-01-30T01:09:40;10.73;;;6.97;;
54983;SDS011;40884;53.562;9.940;2024-01-30T01:10:40;8.83;;;7.23;;
54983;SDS011;40884;53.562;9.940;2024-01-30T01:11:40;9.07;;;6.90;;
54983;SDS011;40884;53.562;9.940;2024-01-30T01:12:40;10.97;;;7.27;;
54983;SDS011;40884;53.562;9.940;2024-01-30T01:13:40;8.30;;;6.50;;
54983;SDS011;40884;53.562;9.940;2024-01-30T01:14:40;10.23;;;7.20;;
54983;SDS011;40884;53.562;9.940;2024-01-30T01:15:40;9.30;;;7.53;;
54983;SDS011;40884;53.562;9.940;2024-01-30T01:16:40;8.27;;;6.63;;
54983;SDS011;40884;53.562;9.940;2024-01-30T01:17:41;10.20;;;7.07;;
54983;SDS011;40884;53.562;9.940;2024-01-30T01:18:41;7.60;;;6.80;;
54983;SDS011;40884;53.562;9.940;2024-01-30T01:19:41;9.27;;;6.67;;
54983;SDS011;40884;53.562;9.940;2024-01-30T01:20:41;11.60;;;7.20;;
54983;SDS011;40884;53.562;9.940;2024-01-30T01:21:41;8.70;;;6.70;;
54983;SDS011;40884;53.562;9.940;2024-01-30T01:22:41;7.77;;;6.60;;
54983;SDS011;40884;53.562;9.940;2024-01-30T01:23:41;9.60;;;6.70;;
54983;SDS011;40884;53.562;9.940;2024-01-30T01:24:41;8.47;;;6.60;;
54983;SDS011;40884;53.562;9.940;2024-01-30T01:25:41;7.90;;;6.83;;
54983;SDS011;40884;53.562;9.940;2024-01-30T01:26:42;7.83;;;6.60;;
54983;SDS011;40884;53.562;9.940;2024-01-30T01:27:42;9.00;;;6.87;;
54983;SDS011;40884;53.562;9.940;2024-01-30T01:28:42;7.40;;;6.60;;
54983;SDS011;40884;53.562;9.940;2024-01-30T01:29:42;9.43;;;6.70;;
54983;SDS011;40884;53.562;9.940;2024-01-30T01:30:42;8.50;;;6.43;;
54983;SDS011;40884;53.562;9.940;2024-01-30T01:31:42;6.97;;;6.27;;
54983;SDS011;40884;53.562;9.940;2024-01-30T01:32:42;7.87;;;6.93;;
54983;SDS011;40884;53.562;9.940;2024-01-30T01:33:42;9.17;;;6.53;;
54983;SDS011;40884;53.562;9.940;2024-01-30T01:34:42;10.13;;;6.63;;
54983;SDS011;40884;53.562;9.940;2024-01-30T01:35:43;7.70;;;6.70;;
54983;SDS011;40884;53.562;9.940;2024-01-30T01:36:43;10.33;;;6.63;;
54983;SDS011;40884;53.562;9.940;2024-01-30T01:37:43;7.73;;;6.43;;
54983;SDS011;40884;53.562;9.940;2024-01-30T01:38:43;8.33;;;6.33;;
54983;SDS011;40884;53.562;9.940;2024-01-30T01:39:43;10.37;;;6.83;;
54983;SDS011;40884;53.562;9.940;2024-01-30T01:40:43;8.10;;;6.87;;
54983;SDS011;40884;53.562;9.940;2024-01-30T01:41:43;9.03;;;6.70;;
54983;SDS011;40884;53.562;9.940;2024-01-30T01:42:43;9.27;;;7.03;;
54983;SDS011;40884;53.562;9.940;2024-01-30T01:43:44;7.87;;;6.80;;
54983;SDS011;40884;53.562;9.940;2024-01-30T01:44:44;7.33;;;6.20;;
54983;SDS011;40884;53.562;9.940;2024-01-30T01:45:44;9.03;;;6.50;;
54983;SDS011;40884;53.562;9.940;2024-01-30T01:46:44;8.47;;;6.97;;
54983;SDS011;40884;53.562;9.940;2024-01-30T01:47:45;10.33;;;6.53;;
54983;SDS011;40884;53.562;9.940;2024-01-30T01:48:46;8.70;;;6.63;;
54983;SDS011;40884;53.562;9.940;2024-01-30T01:49:47;8.23;;;6.40;;
54983;SDS011;40884;53.562;9.940;2024-01-30T01:50:47;8.87;;;6.97;;
54983;SDS011;40884;53.562;9.940;2024-01-30T01:51:47;9.07;;;6.50;;
54983;SDS011;40884;53.562;9.940;2024-01-30T01:52:48;8.07;;;6.83;;
54983;SDS011;40884;53.562;9.940;2024-01-30T01:53:48;9.70;;;6.30;;
54983;SDS011;40884;53.562;9.940;2024-01-30T01:54:48;8.40;;;6.70;;
54983;SDS011;40884;53.562;9.940;2024-01-30T01:55:48;8.27;;;6.67;;
54983;SDS011;40884;53.562;9.940;2024-01-30T01:56:48;10.33;;;6.90;;
54983;SDS011;40884;53.562;9.940;2024-01-30T01:57:49;8.83;;;6.67;;
54983;SDS011;40884;53.562;9.940;2024-01-30T01:58:49;8.83;;;6.70;;
54983;SDS011;40884;53.562;9.940;2024-01-30T01:59:51;9.00;;;6.05;;
54983;SDS011;40884;53.562;9.940;2024-01-30T02:00:51;9.00;;;6.90;;
54983;SDS011;40884;53.562;9.940;2024-01-30T02:01:52;8.80;;;6.83;;
54983;SDS011;40884;53.562;9.940;2024-01-30T02:02:53;8.90;;;6.70;;
54983;SDS011;40884;53.562;9.940;2024-01-30T02:03:54;7.60;;;6.45;;
54983;SDS011;40884;53.562;9.940;2024-01-30T02:04:54;9.27;;;6.53;;
54983;SDS011;40884;53.562;9.940;2024-01-30T02:05:54;8.03;;;6.53;;
54983;SDS011;40884;53.562;9.940;2024-01-30T02:06:55;7.53;;;6.63;;
54983;SDS011;40884;53.562;9.940;2024-01-30T02:07:55;9.50;;;7.23;;
54983;SDS011;40884;53.562;9.940;2024-01-30T02:08:56;9.33;;;7.07;;
54983;SDS011;40884;53.562;9.940;2024-01-30T02:09:56;8.80;;;7.07;;
54983;SDS011;40884;53.562;9.940;2024-01-30T02:10:56;8.60;;;6.70;;
54983;SDS011;40884;53.562;9.940;2024-01-30T02:11:56;10.07;;;6.83;;
54983;SDS011;40884;53.562;9.940;2024-01-30T02:12:56;9.10;;;7.00;;
54983;SDS011;40884;53.562;9.940;2024-01-30T02:13:56;10.73;;;6.33;;
54983;SDS011;40884;53.562;9.940;2024-01-30T02:14:56;7.37;;;6.40;;
54983;SDS011;40884;53.562;9.940;2024-01-30T02:15:56;7.80;;;6.77;;
54983;SDS011;40884;53.562;9.940;2024-01-30T02:16:57;9.23;;;6.87;;
54983;SDS011;40884;53.562;9.940;2024-01-30T02:17:57;10.23;;;6.43;;
54983;SDS011;40884;53.562;9.940;2024-01-30T02:18:57;7.77;;;6.27;;
54983;SDS011;40884;53.562;9.940;2024-01-30T02:19:57;8.90;;;5.97;;
54983;SDS011;40884;53.562;9.940;2024-01-30T02:20:58;9.07;;;6.70;;
54983;SDS011;40884;53.562;9.940;2024-01-30T02:21:58;10.63;;;7.10;;
54983;SDS011;40884;53.562;9.940;2024-01-30T02:22:58;9.13;;;6.97;;
54983;SDS011;40884;53.562;9.940;2024-01-30T02:23:58;7.07;;;6.27;;
54983;SDS011;40884;53.562;9.940;2024-01-30T02:24:59;8.23;;;6.47;;
54983;SDS011;40884;53.562;9.940;2024-01-30T02:25:59;9.97;;;6.57;;
54983;SDS011;40884;53.562;9.940;2024-01-30T02:27:00;8.50;;;6.87;;
54983;SDS011;40884;53.562;9.940;2024-01-30T02:28:00;7.07;;;6.33;;
54983;SDS011;40884;53.562;9.940;2024-01-30T02:29:00;8.63;;;6.83;;
54983;SDS011;40884;53.562;9.940;2024-01-30T02:30:00;8.70;;;6.87;;
54983;SDS011;40884;53.562;9.940;2024-01-30T02:31:00;9.60;;;7.30;;
54983;SDS011;40884;53.562;9.940;2024-01-30T02:32:00;7.80;;;7.00;;
54983;SDS011;40884;53.562;9.940;2024-01-30T02:33:00;7.93;;;6.17;;
54983;SDS011;40884;53.562;9.940;2024-01-30T02:34:01;7.57;;;6.30;;
54983;SDS011;40884;53.562;9.940;2024-01-30T02:35:01;8.27;;;5.93;;
54983;SDS011;40884;53.562;9.940;2024-01-30T02:36:01;9.30;;;6.53;;
54983;SDS011;40884;53.562;9.940;2024-01-30T02:37:01;7.77;;;6.40;;
54983;SDS011;40884;53.562;9.940;2024-01-30T02:38:01;8.43;;;6.33;;
54983;SDS011;40884;53.562;9.940;2024-01-30T02:39:01;8.43;;;6.67;;
54983;SDS011;40884;53.562;9.940;2024-01-30T02:40:01;7.57;;;6.10;;
54983;SDS011;40884;53.562;9.940;2024-01-30T02:41:01;9.77;;;6.70;;
54983;SDS011;40884;53.562;9.940;2024-01-30T02:42:01;7.87;;;6.40;;
54983;SDS011;40884;53.562;9.940;2024-01-30T02:43:02;8.30;;;6.47;;
54983;SDS011;40884;53.562;9.940;2024-01-30T02:44:03;7.53;;;6.73;;
54983;SDS011;40884;53.562;9.940;2024-01-30T02:45:03;9.60;;;7.00;;
54983;SDS011;40884;53.562;9.940;2024-01-30T02:46:03;8.40;;;6.60;;
54983;SDS011;40884;53.562;9.940;2024-01-30T02:47:04;9.10;;;7.30;;
54983;SDS011;40884;53.562;9.940;2024-01-30T02:48:04;7.83;;;5.93;;
54983;SDS011;40884;53.562;9.940;2024-01-30T02:49:04;7.87;;;6.77;;
54983;SDS011;40884;53.562;9.940;2024-01-30T02:50:04;9.07;;;7.07;;
54983;SDS011;40884;53.562;9.940;2024-01-30T02:51:04;7.60;;;6.20;;
54983;SDS011;40884;53.562;9.940;2024-01-30T02:52:05;8.77;;;6.43;;
54983;SDS011;40884;53.562;9.940;2024-01-30T02:53:05;10.03;;;6.83;;
54983;SDS011;40884;53.562;9.940;2024-01-30T02:54:05;8.70;;;6.77;;
54983;SDS011;40884;53.562;9.940;2024-01-30T02:55:05;11.67;;;6.37;;
54983;SDS011;40884;53.562;9.940;2024-01-30T02:56:06;9.33;;;6.97;;
54983;SDS011;40884;53.562;9.940;2024-01-30T02:57:06;9.73;;;6.70;;
54983;SDS011;40884;53.562;9.940;2024-01-30T02:58:06;9.90;;;7.23;;
54983;SDS011;40884;53.562;9.940;2024-01-30T02:59:06;9.13;;;6.63;;
54983;SDS011;40884;53.562;9.940;2024-01-30T03:00:07;7.70;;;6.60;;
54983;SDS011;40884;53.562;9.940;2024-01-30T03:01:07;8.53;;;6.63;;
54983;SDS011;40884;53.562;9.940;2024-01-30T03:02:07;7.90;;;6.93;;
54983;SDS011;40884;53.562;9.940;2024-01-30T03:03:07;8.83;;;6.50;;
54983;SDS011;40884;53.562;9.940;2024-01-30T03:04:07;8.43;;;6.60;;
54983;SDS011;40884;53.562;9.940;2024-01-30T03:05:07;8.37;;;7.07;;
54983;SDS011;40884;53.562;9.940;2024-01-30T03:06:07;10.73;;;6.73;;
54983;SDS011;40884;53.562;9.940;2024-01-30T03:07:08;7.33;;;6.43;;
54983;SDS011;40884;53.562;9.940;2024-01-30T03:08:08;7.90;;;6.37;;
54983;SDS011;40884;53.562;9.940;2024-01-30T03:09:08;8.90;;;6.63;;
54983;SDS011;40884;53.562;9.940;2024-01-30T03:10:08;7.80;;;6.20;;
54983;SDS011;40884;53.562;9.940;2024-01-30T03:11:09;8.10;;;6.93;;
54983;SDS011;40884;53.562;9.940;2024-01-30T03:12:09;6.77;;;6.07;;
54983;SDS011;40884;53.562;9.940;2024-01-30T03:13:09;8.83;;;6.60;;
54983;SDS011;40884;53.562;9.940;2024-01-30T03:14:09;9.20;;;6.87;;
54983;SDS011;40884;53.562;9.940;2024-01-30T03:15:09;12.43;;;6.97;;
54983;SDS011;40884;53.562;9.940;2024-01-30T03:16:09;7.73;;;6.53;;
54983;SDS011;40884;53.562;9.940;2024-01-30T03:17:09;7.97;;;6.47;;
54983;SDS011;40884;53.562;9.940;2024-01-30T03:18:09;8.30;;;6.40;;
54983;SDS011;40884;53.562;9.940;2024-01-30T03:19:10;7.77;;;6.20;;
54983;SDS011;40884;53.562;9.940;2024-01-30T03:20:10;8.13;;;6.80;;
54983;SDS011;40884;53.562;9.940;2024-01-30T03:21:10;7.57;;;6.37;;
54983;SDS011;40884;53.562;9.940;2024-01-30T03:22:10;10.60;;;6.97;;
54983;SDS011;40884;53.562;9.940;2024-01-30T03:23:10;7.30;;;6.33;;
54983;SDS011;40884;53.562;9.940;2024-01-30T03:24:11;8.10;;;6.97;;
54983;SDS011;40884;53.562;9.940;2024-01-30T03:25:11;8.63;;;6.67;;
54983;SDS011;40884;53.562;9.940;2024-01-30T03:26:11;8.00;;;6.90;;
54983;SDS011;40884;53.562;9.940;2024-01-30T03:27:11;8.87;;;6.93;;
54983;SDS011;40884;53.562;9.940;2024-01-30T03:28:11;9.90;;;6.23;;
54983;SDS011;40884;53.562;9.940;2024-01-30T03:29:11;8.00;;;7.07;;
54983;SDS011;40884;53.562;9.940;2024-01-30T03:30:11;7.03;;;6.20;;
54983;SDS011;40884;53.562;9.940;2024-01-30T03:31:13;8.40;;;6.90;;
54983;SDS011;40884;53.562;9.940;2024-01-30T03:32:14;8.40;;;6.50;;
54983;SDS011;40884;53.562;9.940;2024-01-30T03:33:14;9.57;;;6.60;;
54983;SDS011;40884;53.562;9.940;2024-01-30T03:34:14;9.50;;;6.57;;
54983;SDS011;40884;53.562;9.940;2024-01-30T03:35:14;8.23;;;6.53;;
54983;SDS011;40884;53.562;9.940;2024-01-30T03:36:15;8.03;;;6.87;;
54983;SDS011;40884;53.562;9.940;2024-01-30T03:37:15;9.67;;;6.90;;
54983;SDS011;40884;53.562;9.940;2024-01-30T03:38:15;7.97;;;7.00;;
54983;SDS011;40884;53.562;9.940;2024-01-30T03:39:16;7.90;;;6.87;;
54983;SDS011;40884;53.562;9.940;2024-01-30T03:40:16;10.02;;;7.15;;
54983;SDS011;40884;53.562;9.940;2024-01-30T03:41:16;8.90;;;7.30;;
54983;SDS011;40884;53.562;9.940;2024-01-30T03:42:17;8.40;;;6.80;;
54983;SDS011;40884;53.562;9.940;2024-01-30T03:43:17;9.13;;;7.57;;
54983;SDS011;40884;53.562;9.940;2024-01-30T03:44:17;8.83;;;6.50;;
54983;SDS011;40884;53.562;9.940;2024-01-30T03:45:17;9.03;;;6.63;;
54983;SDS011;40884;53.562;9.940;2024-01-30T03:46:17;12.60;;;7.00;;
54983;SDS011;40884;53.562;9.940;2024-01-30T03:47:17;8.40;;;6.33;;
54983;SDS011;40884;53.562;9.940;2024-01-30T03:48:18;8.87;;;7.40;;
54983;SDS011;40884;53.562;9.940;2024-01-30T03:49:18;8.37;;;6.90;;
54983;SDS011;40884;53.562;9.940;2024-01-30T03:50:18;9.87;;;7.00;;
54983;SDS011;40884;53.562;9.940;2024-01-30T03:51:18;9.43;;;7.90;;
54983;SDS011;40884;53.562;9.940;2024-01-30T03:52:18;12.10;;;7.50;;
54983;SDS011;40884;53.562;9.940;2024-01-30T03:53:19;7.97;;;7.10;;
54983;SDS011;40884;53.562;9.940;2024-01-30T03:54:19;11.23;;;7.20;;
54983;SDS011;40884;53.562;9.940;2024-01-30T03:55:19;11.00;;;7.63;;
54983;SDS011;40884;53.562;9.940;2024-01-30T03:56:19;7.97;;;7.17;;
54983;SDS011;40884;53.562;9.940;2024-01-30T03:57:19;11.27;;;7.37;;
54983;SDS011;40884;53.562;9.940;2024-01-30T03:58:19;9.33;;;6.97;;
54983;SDS011;40884;53.562;9.940;2024-01-30T03:59:19;8.33;;;6.77;;
54983;SDS011;40884;53.562;9.940;2024-01-30T04:00:19;8.93;;;7.07;;
54983;SDS011;40884;53.562;9.940;2024-01-30T04:01:19;7.60;;;6.80;;
54983;SDS011;40884;53.562;9.940;2024-01-30T04:02:19;9.47;;;6.60;;
54983;SDS011;40884;53.562;9.940;2024-01-30T04:03:20;10.27;;;7.10;;
54983;SDS011;40884;53.562;9.940;2024-01-30T04:04:20;10.43;;;7.03;;
54983;SDS011;40884;53.562;9.940;2024-01-30T04:05:20;8.90;;;7.03;;
54983;SDS011;40884;53.562;9.940;2024-01-30T04:06:20;10.93;;;7.53;;
54983;SDS011;40884;53.562;9.940;2024-01-30T04:07:20;9.57;;;7.57;;
54983;SDS011;40884;53.562;9.940;2024-01-30T04:08:20;9.23;;;8.00;;
54983;SDS011;40884;53.562;9.940;2024-01-30T04:09:20;7.83;;;6.90;;
54983;SDS011;40884;53.562;9.940;2024-01-30T04:10:21;8.17;;;7.20;;
54983;SDS011;40884;53.562;9.940;2024-01-30T04:11:21;9.27;;;7.00;;
54983;SDS011;40884;53.562;9.940;2024-01-30T04:12:21;8.77;;;7.10;;
54983;SDS011;40884;53.562;9.940;2024-01-30T04:13:21;10.73;;;7.70;;
54983;SDS011;40884;53.562;9.940;2024-01-30T04:14:21;9.43;;;7.07;;
54983;SDS011;40884;53.562;9.940;2024-01-30T04:15:21;8.33;;;7.00;;
54983;SDS011;40884;53.562;9.940;2024-01-30T04:16:21;11.10;;;7.33;;
54983;SDS011;40884;53.562;9.940;2024-01-30T04:17:22;10.37;;;7.30;;
54983;SDS011;40884;53.562;9.940;2024-01-30T04:18:22;8.80;;;7.30;;
54983;SDS011;40884;53.562;9.940;2024-01-30T04:19:22;10.03;;;7.30;;
54983;SDS011;40884;53.562;9.940;2024-01-30T04:20:22;9.87;;;7.30;;
54983;SDS011;40884;53.562;9.940;2024-01-30T04:21:22;7.83;;;6.47;;
54983;SDS011;40884;53.562;9.940;2024-01-30T04:22:22;10.30;;;8.03;;
54983;SDS011;40884;53.562;9.940;2024-01-30T04:23:22;9.83;;;7.23;;
54983;SDS011;40884;53.562;9.940;2024-01-30T04:24:23;9.33;;;6.83;;
54983;SDS011;40884;53.562;9.940;2024-01-30T04:25:23;10.67;;;7.17;;
54983;SDS011;40884;53.562;9.940;2024-01-30T04:26:23;9.03;;;7.07;;
54983;SDS011;40884;53.562;9.940;2024-01-30T04:27:23;9.87;;;7.63;;
54983;SDS011;40884;53.562;9.940;2024-01-30T04:28:23;10.03;;;7.17;;
54983;SDS011;40884;53.562;9.940;2024-01-30T04:29:23;9.10;;;7.40;;
54983;SDS011;40884;53.562;9.940;2024-01-30T04:30:23;9.50;;;7.50;;
54983;SDS011;40884;53.562;9.940;2024-01-30T04:31:23;11.00;;;7.40;;
54983;SDS011;40884;53.562;9.940;2024-01-30T04:32:23;10.87;;;7.80;;
54983;SDS011;40884;53.562;9.940;2024-01-30T04:33:24;10.57;;;7.53;;
54983;SDS011;40884;53.562;9.940;2024-01-30T04:34:24;9.13;;;7.50;;
54983;SDS011;40884;53.562;9.940;2024-01-30T04:35:24;11.20;;;8.67;;
54983;SDS011;40884;53.562;9.940;2024-01-30T04:36:24;10.07;;;7.53;;
54983;SDS011;40884;53.562;9.940;2024-01-30T04:37:24;9.07;;;7.70;;
54983;SDS011;40884;53.562;9.940;2024-01-30T04:38:24;11.20;;;7.77;;
54983;SDS011;40884;53.562;9.940;2024-01-30T04:39:24;9.93;;;8.07;;
54983;SDS011;40884;53.562;9.940;2024-01-30T04:40:25;10.17;;;7.30;;
54983;SDS011;40884;53.562;9.940;2024-01-30T04:41:25;10.00;;;7.50;;
54983;SDS011;40884;53.562;9.940;2024-01-30T04:42:25;10.07;;;7.73;;
54983;SDS011;40884;53.562;9.940;2024-01-30T04:43:25;9.70;;;7.40;;
54983;SDS011;40884;53.562;9.940;2024-01-30T04:44:25;11.30;;;7.73;;
54983;SDS011;40884;53.562;9.940;2024-01-30T04:45:25;11.70;;;7.80;;
54983;SDS011;40884;53.562;9.940;2024-01-30T04:46:25;9.50;;;7.63;;
54983;SDS011;40884;53.562;9.940;2024-01-30T04:47:25;11.80;;;7.60;;
54983;SDS011;40884;53.562;9.940;2024-01-30T04:48:25;10.93;;;8.20;;
54983;SDS011;40884;53.562;9.940;2024-01-30T04:49:26;9.37;;;7.50;;
54983;SDS011;40884;53.562;9.940;2024-01-30T04:50:26;9.57;;;7.67;;
54983;SDS011;40884;53.562;9.940;2024-01-30T04:51:26;10.20;;;7.90;;
54983;SDS011;40884;53.562;9.940;2024-01-30T04:52:26;10.80;;;7.80;;
54983;SDS011;40884;53.562;9.940;2024-01-30T04:53:26;10.73;;;7.57;;
54983;SDS011;40884;53.562;9.940;2024-01-30T04:54:26;10.47;;;8.10;;
54983;SDS011;40884;53.562;9.940;2024-01-30T04:55:26;9.70;;;7.90;;
54983;SDS011;40884;53.562;9.940;2024-01-30T04:56:26;8.60;;;7.70;;
54983;SDS011;40884;53.562;9.940;2024-01-30T04:57:26;10.63;;;8.00;;
54983;SDS011;40884;53.562;9.940;2024-01-30T04:58:27;9.93;;;7.70;;
54983;SDS011;40884;53.562;9.940;2024-01-30T04:59:27;9.97;;;8.10;;
54983;SDS011;40884;53.562;9.940;2024-01-30T05:00:27;9.97;;;7.73;;
54983;SDS011;40884;53.562;9.940;2024-01-30T05:01:27;11.47;;;7.67;;
54983;SDS011;40884;53.562;9.940;2024-01-30T05:02:27;12.07;;;8.23;;
54983;SDS011;40884;53.562;9.940;2024-01-30T05:03:27;10.47;;;8.27;;
54983;SDS011;40884;53.562;9.940;2024-01-30T05:04:27;8.87;;;7.97;;
54983;SDS011;40884;53.562;9.940;2024-01-30T05:05:27;10.80;;;8.30;;
54983;SDS011;40884;53.562;9.940;2024-01-30T05:06:28;10.67;;;7.97;;
54983;SDS011;40884;53.562;9.940;2024-01-30T05:07:28;10.37;;;7.97;;
54983;SDS011;40884;53.562;9.940;2024-01-30T05:08:28;12.07;;;8.33;;
54983;SDS011;40884;53.562;9.940;2024-01-30T05:09:28;12.10;;;7.87;;
54983;SDS011;40884;53.562;9.940;2024-01-30T05:10:28;10.07;;;7.90;;
54983;SDS011;40884;53.562;9.940;2024-01-30T05:11:28;13.13;;;8.30;;
54983;SDS011;40884;53.562;9.940;2024-01-30T05:12:29;12.23;;;7.80;;
54983;SDS011;40884;53.562;9.940;2024-01-30T05:13:32;9.70;;;7.83;;
54983;SDS011;40884;53.562;9.940;2024-01-30T05:14:32;11.90;;;9.00;;
54983;SDS011;40884;53.562;9.940;2024-01-30T05:15:32;10.13;;;8.17;;
54983;SDS011;40884;53.562;9.940;2024-01-30T05:16:32;14.10;;;8.97;;
54983;SDS011;40884;53.562;9.940;2024-01-30T05:17:32;11.77;;;8.90;;
54983;SDS011;40884;53.562;9.940;2024-01-30T05:18:32;10.67;;;8.70;;
54983;SDS011;40884;53.562;9.940;2024-01-30T05:19:32;12.40;;;8.90;;
54983;SDS011;40884;53.562;9.940;2024-01-30T05:20:32;10.13;;;8.67;;
54983;SDS011;40884;53.562;9.940;2024-01-30T05:21:32;10.30;;;8.70;;
54983;SDS011;40884;53.562;9.940;2024-01-30T05:22:33;13.83;;;8.77;;
54983;SDS011;40884;53.562;9.940;2024-01-30T05:23:33;11.47;;;8.53;;
54983;SDS011;40884;53.562;9.940;2024-01-30T05:24:33;10.23;;;8.50;;
54983;SDS011;40884;53.562;9.940;2024-01-30T05:25:33;14.33;;;8.90;;
54983;SDS011;40884;53.562;9.940;2024-01-30T05:26:33;11.33;;;8.73;;
54983;SDS011;40884;53.562;9.940;2024-01-30T05:27:33;10.57;;;8.60;;
54983;SDS011;40884;53.562;9.940;2024-01-30T05:28:33;10.90;;;8.97;;
54983;SDS011;40884;53.562;9.940;2024-01-30T05:29:33;13.07;;;8.07;;
54983;SDS011;40884;53.562;9.940;2024-01-30T05:30:34;10.00;;;8.37;;
54983;SDS011;40884;53.562;9.940;2024-01-30T05:31:34;10.87;;;8.40;;
54983;SDS011;40884;53.562;9.940;2024-01-30T05:32:34;11.20;;;8.37;;
54983;SDS011;40884;53.562;9.940;2024-01-30T05:33:34;10.87;;;7.97;;
54983;SDS011;40884;53.562;9.940;2024-01-30T05:34:35;12.67;;;8.20;;
54983;SDS011;40884;53.562;9.940;2024-01-30T05:35:35;13.40;;;7.80;;
54983;SDS011;40884;53.562;9.940;2024-01-30T05:36:35;9.70;;;7.90;;
54983;SDS011;40884;53.562;9.940;2024-01-30T05:37:35;9.00;;;8.10;;
54983;SDS011;40884;53.562;9.940;2024-01-30T05:38:35;11.20;;;8.77;;
54983;SDS011;40884;53.562;9.940;2024-01-30T05:39:35;11.23;;;9.33;;
54983;SDS011;40884;53.562;9.940;2024-01-30T05:40:35;12.20;;;8.87;;
54983;SDS011;40884;53.562;9.940;2024-01-30T05:41:36;8.93;;;7.87;;
54983;SDS011;40884;53.562;9.940;2024-01-30T05:42:36;10.47;;;8.50;;
54983;SDS011;40884;53.562;9.940;2024-01-30T05:43:36;10.67;;;8.63;;
54983;SDS011;40884;53.562;9.940;2024-01-30T05:44:36;11.77;;;8.90;;
54983;SDS011;40884;53.562;9.940;2024-01-30T05:45:36;10.17;;;8.87;;
54983;SDS011;40884;53.562;9.940;2024-01-30T05:46:36;11.20;;;8.60;;
54983;SDS011;40884;53.562;9.940;2024-01-30T05:47:36;10.13;;;8.53;;
54983;SDS011;40884;53.562;9.940;2024-01-30T05:48:36;15.93;;;10.27;;
54983;SDS011;40884;53.562;9.940;2024-01-30T05:49:36;25.17;;;17.10;;
54983;SDS011;40884;53.562;9.940;2024-01-30T05:50:37;17.60;;;12.57;;
54983;SDS011;40884;53.562;9.940;2024-01-30T05:51:37;17.50;;;12.23;;
54983;SDS011;40884;53.562;9.940;2024-01-30T05:52:37;15.40;;;9.93;;
54983;SDS011;40884;53.562;9.940;2024-01-30T05:53:37;10.10;;;8.77;;
54983;SDS011;40884;53.562;9.940;2024-01-30T05:54:37;10.83;;;9.00;;
54983;SDS011;40884;53.562;9.940;2024-01-30T05:55:37;13.37;;;9.97;;
54983;SDS011;40884;53.562;9.940;2024-01-30T05:56:37;13.60;;;9.47;;
54983;SDS011;40884;53.562;9.940;2024-01-30T05:57:38;9.83;;;8.83;;
54983;SDS011;40884;53.562;9.940;2024-01-30T05:58:38;10.50;;;8.57;;
54983;SDS011;40884;53.562;9.940;2024-01-30T05:59:38;14.70;;;10.97;;
54983;SDS011;40884;53.562;9.940;2024-01-30T06:00:38;15.00;;;11.27;;